sensor_id;sensor_type;location;lat;lon;timestamp;temperature;humidity
10089;DHT22;51898;49.864;8.550;2023-07-02T00:02:15;17.40;74.90
10089;DHT22;51898;49.864;8.550;2023-07-02T00:05:18;17.40;74.80
10089;DHT22;51898;49.864;8.550;2023-07-02T00:08:22;17.40;75.00
10089;DHT22;51898;49.864;8.550;2023-07-02T00:11:24;17.40;75.00
10089;DHT22;51898;49.864;8.550;2023-07-02T00:14:26;17.40;74.80
10089;DHT22;51898;49.864;8.550;2023-07-02T00:17:28;17.40;74.90
10089;DHT22;51898;49.864;8.550;2023-07-02T00:20:31;17.30;75.10
10089;DHT22;51898;49.864;8.550;2023-07-02T00:23:44;17.30;75.30
10089;DHT22;51898;49.864;8.550;2023-07-02T00:26:46;17.30;75.20
10089;DHT22;51898;49.864;8.550;2023-07-02T00:29:48;17.20;75.40
10089;DHT22;51898;49.864;8.550;2023-07-02T00:32:50;17.20;75.40
10089;DHT22;51898;49.864;8.550;2023-07-02T00:36:01;17.10;75.60
10089;DHT22;51898;49.864;8.550;2023-07-02T00:39:04;17.10;75.70
10089;DHT22;51898;49.864;8.550;2023-07-02T00:42:06;17.10;75.80
10089;DHT22;51898;49.864;8.550;2023-07-02T00:45:10;17.00;75.70
10089;DHT22;51898;49.864;8.550;2023-07-02T00:48:12;17.00;75.60
10089;DHT22;51898;49.864;8.550;2023-07-02T00:51:16;16.90;75.80
10089;DHT22;51898;49.864;8.550;2023-07-02T00:54:18;16.90;76.00
10089;DHT22;51898;49.864;8.550;2023-07-02T00:57:22;16.80;76.40
10089;DHT22;51898;49.864;8.550;2023-07-02T01:06:55;16.50;77.50
10089;DHT22;51898;49.864;8.550;2023-07-02T01:09:59;16.40;77.90
10089;DHT22;51898;49.864;8.550;2023-07-02T01:13:15;16.30;78.10
10089;DHT22;51898;49.864;8.550;2023-07-02T01:16:17;16.20;78.30
10089;DHT22;51898;49.864;8.550;2023-07-02T01:22:54;16.10;78.80
10089;DHT22;51898;49.864;8.550;2023-07-02T01:25:55;15.90;79.00
10089;DHT22;51898;49.864;8.550;2023-07-02T01:29:18;15.80;79.10
10089;DHT22;51898;49.864;8.550;2023-07-02T01:32:21;15.80;79.20
10089;DHT22;51898;49.864;8.550;2023-07-02T01:35:23;15.70;79.40
10089;DHT22;51898;49.864;8.550;2023-07-02T01:38:25;15.60;79.50
10089;DHT22;51898;49.864;8.550;2023-07-02T01:41:37;15.60;79.50
10089;DHT22;51898;49.864;8.550;2023-07-02T01:44:39;15.60;79.70
10089;DHT22;51898;49.864;8.550;2023-07-02T01:47:41;15.50;79.90
10089;DHT22;51898;49.864;8.550;2023-07-02T01:50:43;15.50;79.70
10089;DHT22;51898;49.864;8.550;2023-07-02T01:53:44;15.40;79.60
10089;DHT22;51898;49.864;8.550;2023-07-02T01:56:46;15.40;79.20
10089;DHT22;51898;49.864;8.550;2023-07-02T01:59:48;15.40;78.90
10089;DHT22;51898;49.864;8.550;2023-07-02T02:02:50;15.40;78.70
10089;DHT22;51898;49.864;8.550;2023-07-02T02:05:52;15.30;78.40
10089;DHT22;51898;49.864;8.550;2023-07-02T02:08:54;15.30;78.20
10089;DHT22;51898;49.864;8.550;2023-07-02T02:11:55;15.30;78.20
10089;DHT22;51898;49.864;8.550;2023-07-02T02:14:57;15.20;78.40
10089;DHT22;51898;49.864;8.550;2023-07-02T02:18:01;15.20;78.60
10089;DHT22;51898;49.864;8.550;2023-07-02T02:21:02;15.20;78.70
10089;DHT22;51898;49.864;8.550;2023-07-02T02:24:05;15.10;78.10
10089;DHT22;51898;49.864;8.550;2023-07-02T02:27:08;15.10;77.80
10089;DHT22;51898;49.864;8.550;2023-07-02T02:30:10;15.00;77.40
10089;DHT22;51898;49.864;8.550;2023-07-02T02:33:12;15.00;75.30
10089;DHT22;51898;49.864;8.550;2023-07-02T02:36:14;15.00;74.70
10089;DHT22;51898;49.864;8.550;2023-07-02T02:39:16;15.00;74.40
10089;DHT22;51898;49.864;8.550;2023-07-02T02:42:17;15.00;73.90
10089;DHT22;51898;49.864;8.550;2023-07-02T02:45:19;15.00;74.10
10089;DHT22;51898;49.864;8.550;2023-07-02T02:48:21;14.90;74.20
10089;DHT22;51898;49.864;8.550;2023-07-02T02:51:24;14.90;74.20
10089;DHT22;51898;49.864;8.550;2023-07-02T02:54:26;14.90;74.60
10089;DHT22;51898;49.864;8.550;2023-07-02T02:57:28;14.80;75.00
10089;DHT22;51898;49.864;8.550;2023-07-02T03:00:29;14.80;75.40
10089;DHT22;51898;49.864;8.550;2023-07-02T03:03:31;14.70;76.20
10089;DHT22;51898;49.864;8.550;2023-07-02T03:06:35;14.70;77.00
10089;DHT22;51898;49.864;8.550;2023-07-02T03:09:37;14.70;77.30
10089;DHT22;51898;49.864;8.550;2023-07-02T03:12:39;14.60;77.50
10089;DHT22;51898;49.864;8.550;2023-07-02T03:15:40;14.60;77.40
10089;DHT22;51898;49.864;8.550;2023-07-02T03:18:42;14.60;78.00
10089;DHT22;51898;49.864;8.550;2023-07-02T03:21:44;14.60;78.40
10089;DHT22;51898;49.864;8.550;2023-07-02T03:24:46;14.60;78.80
10089;DHT22;51898;49.864;8.550;2023-07-02T03:27:51;14.60;78.70
10089;DHT22;51898;49.864;8.550;2023-07-02T03:30:52;14.60;78.70
10089;DHT22;51898;49.864;8.550;2023-07-02T03:33:54;14.60;78.40
10089;DHT22;51898;49.864;8.550;2023-07-02T03:36:56;14.60;78.20
10089;DHT22;51898;49.864;8.550;2023-07-02T03:39:57;14.60;78.10
10089;DHT22;51898;49.864;8.550;2023-07-02T03:43:00;14.60;77.80
10089;DHT22;51898;49.864;8.550;2023-07-02T03:46:02;14.60;77.60
10089;DHT22;51898;49.864;8.550;2023-07-02T03:49:03;14.70;77.50
10089;DHT22;51898;49.864;8.550;2023-07-02T03:52:06;14.70;77.40
10089;DHT22;51898;49.864;8.550;2023-07-02T03:55:08;14.80;77.00
10089;DHT22;51898;49.864;8.550;2023-07-02T03:58:10;14.90;76.70
10089;DHT22;51898;49.864;8.550;2023-07-02T04:01:12;15.00;76.70
10089;DHT22;51898;49.864;8.550;2023-07-02T04:04:17;15.00;76.50
10089;DHT22;51898;49.864;8.550;2023-07-02T04:07:19;15.00;76.50
10089;DHT22;51898;49.864;8.550;2023-07-02T04:10:21;15.10;76.40
10089;DHT22;51898;49.864;8.550;2023-07-02T04:13:22;15.10;76.20
10089;DHT22;51898;49.864;8.550;2023-07-02T04:16:24;15.20;76.10
10089;DHT22;51898;49.864;8.550;2023-07-02T04:19:26;15.30;75.90
10089;DHT22;51898;49.864;8.550;2023-07-02T04:22:28;15.40;75.50
10089;DHT22;51898;49.864;8.550;2023-07-02T04:25:29;15.40;75.00
10089;DHT22;51898;49.864;8.550;2023-07-02T04:28:51;15.50;74.50
10089;DHT22;51898;49.864;8.550;2023-07-02T04:31:53;15.60;73.90
10089;DHT22;51898;49.864;8.550;2023-07-02T04:34:55;15.70;73.70
10089;DHT22;51898;49.864;8.550;2023-07-02T04:37:57;15.70;73.60
10089;DHT22;51898;49.864;8.550;2023-07-02T04:41:02;15.80;73.20
10089;DHT22;51898;49.864;8.550;2023-07-02T04:44:07;16.00;72.70
10089;DHT22;51898;49.864;8.550;2023-07-02T04:47:09;16.00;72.20
10089;DHT22;51898;49.864;8.550;2023-07-02T04:50:11;16.10;71.50
10089;DHT22;51898;49.864;8.550;2023-07-02T04:53:16;16.20;71.70
10089;DHT22;51898;49.864;8.550;2023-07-02T04:56:17;16.40;71.10
10089;DHT22;51898;49.864;8.550;2023-07-02T04:59:21;16.50;70.70
10089;DHT22;51898;49.864;8.550;2023-07-02T05:02:23;16.70;70.60
10089;DHT22;51898;49.864;8.550;2023-07-02T05:05:25;16.80;70.20
10089;DHT22;51898;49.864;8.550;2023-07-02T05:08:26;16.90;69.40
10089;DHT22;51898;49.864;8.550;2023-07-02T05:11:28;17.10;68.90
10089;DHT22;51898;49.864;8.550;2023-07-02T05:14:30;17.20;68.20
10089;DHT22;51898;49.864;8.550;2023-07-02T05:17:32;17.30;68.00
10089;DHT22;51898;49.864;8.550;2023-07-02T05:20:36;17.30;67.90
10089;DHT22;51898;49.864;8.550;2023-07-02T05:23:38;17.40;67.70
10089;DHT22;51898;49.864;8.550;2023-07-02T05:26:40;17.40;67.30
10089;DHT22;51898;49.864;8.550;2023-07-02T05:29:42;17.40;67.20
10089;DHT22;51898;49.864;8.550;2023-07-02T05:32:44;17.40;67.00
10089;DHT22;51898;49.864;8.550;2023-07-02T05:35:46;17.50;66.90
10089;DHT22;51898;49.864;8.550;2023-07-02T05:38:47;17.50;67.30
10089;DHT22;51898;49.864;8.550;2023-07-02T05:41:49;17.50;66.90
10089;DHT22;51898;49.864;8.550;2023-07-02T05:44:51;17.60;66.70
10089;DHT22;51898;49.864;8.550;2023-07-02T05:47:52;17.60;66.60
10089;DHT22;51898;49.864;8.550;2023-07-02T05:50:55;17.60;66.80
10089;DHT22;51898;49.864;8.550;2023-07-02T05:53:56;17.70;66.60
10089;DHT22;51898;49.864;8.550;2023-07-02T05:56:58;17.80;66.70
10089;DHT22;51898;49.864;8.550;2023-07-02T06:00:00;17.80;66.10
10089;DHT22;51898;49.864;8.550;2023-07-02T06:03:02;17.90;66.10
10089;DHT22;51898;49.864;8.550;2023-07-02T06:06:04;17.90;66.20
10089;DHT22;51898;49.864;8.550;2023-07-02T06:09:06;18.10;66.20
10089;DHT22;51898;49.864;8.550;2023-07-02T06:12:08;18.20;65.80
10089;DHT22;51898;49.864;8.550;2023-07-02T06:15:10;18.30;65.30
10089;DHT22;51898;49.864;8.550;2023-07-02T06:18:12;18.50;64.90
10089;DHT22;51898;49.864;8.550;2023-07-02T06:21:14;18.50;65.00
10089;DHT22;51898;49.864;8.550;2023-07-02T06:24:16;18.60;64.50
10089;DHT22;51898;49.864;8.550;2023-07-02T06:27:17;18.70;64.60
10089;DHT22;51898;49.864;8.550;2023-07-02T06:30:19;18.80;64.30
10089;DHT22;51898;49.864;8.550;2023-07-02T06:33:23;18.90;64.00
10089;DHT22;51898;49.864;8.550;2023-07-02T06:36:25;19.00;64.00
10089;DHT22;51898;49.864;8.550;2023-07-02T06:39:27;19.10;63.20
10089;DHT22;51898;49.864;8.550;2023-07-02T06:42:28;19.20;63.10
10089;DHT22;51898;49.864;8.550;2023-07-02T06:45:30;19.30;63.10
10089;DHT22;51898;49.864;8.550;2023-07-02T06:48:32;19.40;62.50
10089;DHT22;51898;49.864;8.550;2023-07-02T06:51:34;19.60;62.10
10089;DHT22;51898;49.864;8.550;2023-07-02T06:54:36;19.70;62.30
10089;DHT22;51898;49.864;8.550;2023-07-02T06:57:44;19.70;61.70
10089;DHT22;51898;49.864;8.550;2023-07-02T07:00:49;19.70;61.70
10089;DHT22;51898;49.864;8.550;2023-07-02T07:03:52;19.70;61.40
10089;DHT22;51898;49.864;8.550;2023-07-02T07:06:53;19.80;61.20
10089;DHT22;51898;49.864;8.550;2023-07-02T07:09:56;20.00;61.40
10089;DHT22;51898;49.864;8.550;2023-07-02T07:12:58;20.10;60.50
10089;DHT22;51898;49.864;8.550;2023-07-02T07:16:00;20.30;60.20
10089;DHT22;51898;49.864;8.550;2023-07-02T07:19:02;20.30;58.90
10089;DHT22;51898;49.864;8.550;2023-07-02T07:22:03;20.20;59.10
10089;DHT22;51898;49.864;8.550;2023-07-02T07:25:05;20.20;59.30
10089;DHT22;51898;49.864;8.550;2023-07-02T07:28:07;20.20;59.50
10089;DHT22;51898;49.864;8.550;2023-07-02T07:31:13;20.20;58.10
10089;DHT22;51898;49.864;8.550;2023-07-02T07:34:15;20.20;58.70
10089;DHT22;51898;49.864;8.550;2023-07-02T07:37:16;20.20;57.80
10089;DHT22;51898;49.864;8.550;2023-07-02T07:40:18;20.30;57.80
10089;DHT22;51898;49.864;8.550;2023-07-02T07:43:22;20.60;57.70
10089;DHT22;51898;49.864;8.550;2023-07-02T07:46:24;20.60;56.00
10089;DHT22;51898;49.864;8.550;2023-07-02T07:49:26;20.80;55.80
10089;DHT22;51898;49.864;8.550;2023-07-02T07:52:27;21.00;55.20
10089;DHT22;51898;49.864;8.550;2023-07-02T07:55:29;21.20;54.80
10089;DHT22;51898;49.864;8.550;2023-07-02T07:58:31;21.30;55.10
10089;DHT22;51898;49.864;8.550;2023-07-02T08:01:35;21.40;53.70
10089;DHT22;51898;49.864;8.550;2023-07-02T08:04:37;21.30;54.00
10089;DHT22;51898;49.864;8.550;2023-07-02T08:07:40;21.40;54.70
10089;DHT22;51898;49.864;8.550;2023-07-02T08:10:44;21.50;53.50
10089;DHT22;51898;49.864;8.550;2023-07-02T08:13:47;21.60;53.20
10089;DHT22;51898;49.864;8.550;2023-07-02T08:16:48;21.60;53.30
10089;DHT22;51898;49.864;8.550;2023-07-02T08:19:50;21.70;53.00
10089;DHT22;51898;49.864;8.550;2023-07-02T08:22:52;21.70;52.50
10089;DHT22;51898;49.864;8.550;2023-07-02T08:25:54;21.70;51.90
10089;DHT22;51898;49.864;8.550;2023-07-02T08:28:56;21.90;51.30
10089;DHT22;51898;49.864;8.550;2023-07-02T08:31:58;22.00;50.50
10089;DHT22;51898;49.864;8.550;2023-07-02T08:35:00;22.20;49.70
10089;DHT22;51898;49.864;8.550;2023-07-02T08:38:01;22.10;49.10
10089;DHT22;51898;49.864;8.550;2023-07-02T08:41:04;22.00;50.00
10089;DHT22;51898;49.864;8.550;2023-07-02T08:44:05;22.00;49.90
10089;DHT22;51898;49.864;8.550;2023-07-02T08:47:07;22.10;50.00
10089;DHT22;51898;49.864;8.550;2023-07-02T08:50:10;22.40;48.90
10089;DHT22;51898;49.864;8.550;2023-07-02T08:53:11;22.90;49.10
10089;DHT22;51898;49.864;8.550;2023-07-02T08:56:13;23.30;47.80
10089;DHT22;51898;49.864;8.550;2023-07-02T08:59:15;23.20;47.60
10089;DHT22;51898;49.864;8.550;2023-07-02T09:02:17;23.30;47.60
10089;DHT22;51898;49.864;8.550;2023-07-02T09:05:19;23.20;46.50
10089;DHT22;51898;49.864;8.550;2023-07-02T09:08:25;23.00;47.20
10089;DHT22;51898;49.864;8.550;2023-07-02T09:11:27;23.10;46.80
10089;DHT22;51898;49.864;8.550;2023-07-02T09:14:30;23.00;46.40
10089;DHT22;51898;49.864;8.550;2023-07-02T09:17:36;22.80;45.60
10089;DHT22;51898;49.864;8.550;2023-07-02T09:20:40;22.30;46.30
10089;DHT22;51898;49.864;8.550;2023-07-02T09:23:42;22.10;47.40
10089;DHT22;51898;49.864;8.550;2023-07-02T09:26:48;22.00;48.40
10089;DHT22;51898;49.864;8.550;2023-07-02T09:29:52;21.90;49.50
10089;DHT22;51898;49.864;8.550;2023-07-02T09:32:54;22.20;49.10
10089;DHT22;51898;49.864;8.550;2023-07-02T09:36:07;22.60;48.00
10089;DHT22;51898;49.864;8.550;2023-07-02T09:39:19;22.40;47.60
10089;DHT22;51898;49.864;8.550;2023-07-02T09:42:22;22.10;48.30
10089;DHT22;51898;49.864;8.550;2023-07-02T09:45:27;22.20;48.50
10089;DHT22;51898;49.864;8.550;2023-07-02T09:48:32;22.60;48.70
10089;DHT22;51898;49.864;8.550;2023-07-02T09:51:37;23.00;47.50
10089;DHT22;51898;49.864;8.550;2023-07-02T09:54:39;23.50;46.30
10089;DHT22;51898;49.864;8.550;2023-07-02T09:57:43;23.80;44.40
10089;DHT22;51898;49.864;8.550;2023-07-02T10:00:45;23.70;44.60
10089;DHT22;51898;49.864;8.550;2023-07-02T10:03:47;23.60;45.70
10089;DHT22;51898;49.864;8.550;2023-07-02T10:06:55;23.50;46.30
10089;DHT22;51898;49.864;8.550;2023-07-02T10:09:57;23.10;46.40
10089;DHT22;51898;49.864;8.550;2023-07-02T10:12:59;22.90;46.20
10089;DHT22;51898;49.864;8.550;2023-07-02T10:16:04;22.80;46.10
10089;DHT22;51898;49.864;8.550;2023-07-02T10:19:13;23.10;45.30
10089;DHT22;51898;49.864;8.550;2023-07-02T10:22:14;23.20;44.70
10089;DHT22;51898;49.864;8.550;2023-07-02T10:25:27;23.30;45.40
10089;DHT22;51898;49.864;8.550;2023-07-02T10:28:29;23.30;46.00
10089;DHT22;51898;49.864;8.550;2023-07-02T10:31:30;23.50;45.50
10089;DHT22;51898;49.864;8.550;2023-07-02T10:34:34;23.50;45.40
10089;DHT22;51898;49.864;8.550;2023-07-02T10:37:36;23.60;45.40
10089;DHT22;51898;49.864;8.550;2023-07-02T10:40:39;23.80;43.20
10089;DHT22;51898;49.864;8.550;2023-07-02T10:43:41;24.30;44.10
10089;DHT22;51898;49.864;8.550;2023-07-02T10:46:46;24.60;42.30
10089;DHT22;51898;49.864;8.550;2023-07-02T10:49:48;24.20;42.20
10089;DHT22;51898;49.864;8.550;2023-07-02T10:52:53;23.80;43.20
10089;DHT22;51898;49.864;8.550;2023-07-02T10:55:56;23.70;43.20
10089;DHT22;51898;49.864;8.550;2023-07-02T10:58:59;23.80;43.40
10089;DHT22;51898;49.864;8.550;2023-07-02T11:02:01;24.10;43.60
10089;DHT22;51898;49.864;8.550;2023-07-02T11:05:06;24.00;42.70
10089;DHT22;51898;49.864;8.550;2023-07-02T11:08:09;24.10;41.80
10089;DHT22;51898;49.864;8.550;2023-07-02T11:11:10;24.30;42.40
10089;DHT22;51898;49.864;8.550;2023-07-02T11:14:12;24.30;41.70
10089;DHT22;51898;49.864;8.550;2023-07-02T11:17:14;24.20;42.40
10089;DHT22;51898;49.864;8.550;2023-07-02T11:20:16;24.50;42.60
10089;DHT22;51898;49.864;8.550;2023-07-02T11:23:19;25.10;40.60
10089;DHT22;51898;49.864;8.550;2023-07-02T11:26:21;24.80;40.10
10089;DHT22;51898;49.864;8.550;2023-07-02T11:29:23;24.90;40.20
10089;DHT22;51898;49.864;8.550;2023-07-02T11:32:25;24.60;41.10
10089;DHT22;51898;49.864;8.550;2023-07-02T11:35:36;24.40;41.20
10089;DHT22;51898;49.864;8.550;2023-07-02T11:38:38;24.20;42.10
10089;DHT22;51898;49.864;8.550;2023-07-02T11:41:40;24.20;42.20
10089;DHT22;51898;49.864;8.550;2023-07-02T11:44:42;24.30;42.60
10089;DHT22;51898;49.864;8.550;2023-07-02T11:47:44;24.80;41.20
10089;DHT22;51898;49.864;8.550;2023-07-02T11:50:46;24.80;40.80
10089;DHT22;51898;49.864;8.550;2023-07-02T11:53:48;25.10;39.50
10089;DHT22;51898;49.864;8.550;2023-07-02T11:56:49;25.00;39.90
10089;DHT22;51898;49.864;8.550;2023-07-02T11:59:51;25.00;40.50
10089;DHT22;51898;49.864;8.550;2023-07-02T12:02:53;24.90;40.20
10089;DHT22;51898;49.864;8.550;2023-07-02T12:05:56;24.80;41.10
10089;DHT22;51898;49.864;8.550;2023-07-02T12:08:57;25.00;40.50
10089;DHT22;51898;49.864;8.550;2023-07-02T12:11:59;25.30;39.90
10089;DHT22;51898;49.864;8.550;2023-07-02T12:15:01;25.50;39.70
10089;DHT22;51898;49.864;8.550;2023-07-02T12:18:03;25.60;39.80
10089;DHT22;51898;49.864;8.550;2023-07-02T12:21:05;25.70;38.90
10089;DHT22;51898;49.864;8.550;2023-07-02T12:24:07;25.80;38.90
10089;DHT22;51898;49.864;8.550;2023-07-02T12:27:11;25.80;38.80
10089;DHT22;51898;49.864;8.550;2023-07-02T12:30:12;26.10;38.70
10089;DHT22;51898;49.864;8.550;2023-07-02T12:33:18;26.50;38.20
10089;DHT22;51898;49.864;8.550;2023-07-02T12:36:21;26.90;37.20
10089;DHT22;51898;49.864;8.550;2023-07-02T12:39:22;26.80;36.80
10089;DHT22;51898;49.864;8.550;2023-07-02T12:42:24;26.80;37.50
10089;DHT22;51898;49.864;8.550;2023-07-02T12:45:26;26.40;38.00
10089;DHT22;51898;49.864;8.550;2023-07-02T12:48:28;26.00;38.40
10089;DHT22;51898;49.864;8.550;2023-07-02T12:51:30;25.90;38.60
10089;DHT22;51898;49.864;8.550;2023-07-02T12:54:32;25.60;38.80
10089;DHT22;51898;49.864;8.550;2023-07-02T12:57:34;25.40;39.20
10089;DHT22;51898;49.864;8.550;2023-07-02T13:00:36;25.60;38.70
10089;DHT22;51898;49.864;8.550;2023-07-02T13:03:44;25.30;39.30
10089;DHT22;51898;49.864;8.550;2023-07-02T13:06:46;25.30;39.20
10089;DHT22;51898;49.864;8.550;2023-07-02T13:09:48;25.10;39.60
10089;DHT22;51898;49.864;8.550;2023-07-02T13:12:50;25.20;39.30
10089;DHT22;51898;49.864;8.550;2023-07-02T13:15:51;25.10;39.70
10089;DHT22;51898;49.864;8.550;2023-07-02T13:18:54;25.30;38.90
10089;DHT22;51898;49.864;8.550;2023-07-02T13:21:58;25.60;38.10
10089;DHT22;51898;49.864;8.550;2023-07-02T13:24:59;25.70;38.10
10089;DHT22;51898;49.864;8.550;2023-07-02T13:28:01;25.90;38.10
10089;DHT22;51898;49.864;8.550;2023-07-02T13:31:03;25.90;37.20
10089;DHT22;51898;49.864;8.550;2023-07-02T13:34:05;26.00;37.50
10089;DHT22;51898;49.864;8.550;2023-07-02T13:37:08;25.80;38.20
10089;DHT22;51898;49.864;8.550;2023-07-02T13:40:10;26.20;38.10
10089;DHT22;51898;49.864;8.550;2023-07-02T13:43:14;26.70;37.20
10089;DHT22;51898;49.864;8.550;2023-07-02T13:46:15;27.00;35.80
10089;DHT22;51898;49.864;8.550;2023-07-02T13:49:17;26.80;35.60
10089;DHT22;51898;49.864;8.550;2023-07-02T13:52:19;26.50;36.00
10089;DHT22;51898;49.864;8.550;2023-07-02T13:55:21;26.30;36.70
10089;DHT22;51898;49.864;8.550;2023-07-02T14:01:48;26.30;36.30
10089;DHT22;51898;49.864;8.550;2023-07-02T14:04:51;26.10;36.60
10089;DHT22;51898;49.864;8.550;2023-07-02T14:07:53;25.80;36.10
10089;DHT22;51898;49.864;8.550;2023-07-02T14:10:54;25.50;36.60
10089;DHT22;51898;49.864;8.550;2023-07-02T14:13:56;25.70;37.10
10089;DHT22;51898;49.864;8.550;2023-07-02T14:16:58;26.20;36.20
10089;DHT22;51898;49.864;8.550;2023-07-02T14:20:00;26.70;36.40
10089;DHT22;51898;49.864;8.550;2023-07-02T14:23:01;26.30;35.60
10089;DHT22;51898;49.864;8.550;2023-07-02T14:26:03;26.00;36.80
10089;DHT22;51898;49.864;8.550;2023-07-02T14:29:05;25.80;36.40
10089;DHT22;51898;49.864;8.550;2023-07-02T14:32:07;25.80;36.60
10089;DHT22;51898;49.864;8.550;2023-07-02T14:35:09;26.10;36.50
10089;DHT22;51898;49.864;8.550;2023-07-02T14:38:11;26.20;36.20
10089;DHT22;51898;49.864;8.550;2023-07-02T14:41:12;26.00;36.00
10089;DHT22;51898;49.864;8.550;2023-07-02T14:44:14;25.90;36.40
10089;DHT22;51898;49.864;8.550;2023-07-02T14:47:16;25.70;36.60
10089;DHT22;51898;49.864;8.550;2023-07-02T14:50:18;25.60;36.60
10089;DHT22;51898;49.864;8.550;2023-07-02T14:53:21;25.90;36.40
10089;DHT22;51898;49.864;8.550;2023-07-02T14:56:22;26.20;36.00
10089;DHT22;51898;49.864;8.550;2023-07-02T14:59:24;26.00;35.80
10089;DHT22;51898;49.864;8.550;2023-07-02T15:02:26;25.90;36.70
10089;DHT22;51898;49.864;8.550;2023-07-02T15:05:28;25.90;36.10
10089;DHT22;51898;49.864;8.550;2023-07-02T15:08:30;26.10;36.30
10089;DHT22;51898;49.864;8.550;2023-07-02T15:11:32;25.80;36.20
10089;DHT22;51898;49.864;8.550;2023-07-02T15:14:33;25.80;36.90
10089;DHT22;51898;49.864;8.550;2023-07-02T15:17:35;25.80;36.40
10089;DHT22;51898;49.864;8.550;2023-07-02T15:20:37;25.80;37.10
10089;DHT22;51898;49.864;8.550;2023-07-02T15:23:39;25.80;36.30
10089;DHT22;51898;49.864;8.550;2023-07-02T15:26:42;25.80;36.30
10089;DHT22;51898;49.864;8.550;2023-07-02T15:29:44;26.00;36.00
10089;DHT22;51898;49.864;8.550;2023-07-02T15:32:45;26.30;36.00
10089;DHT22;51898;49.864;8.550;2023-07-02T15:35:47;26.30;35.10
10089;DHT22;51898;49.864;8.550;2023-07-02T15:38:50;26.00;35.80
10089;DHT22;51898;49.864;8.550;2023-07-02T15:41:52;25.70;35.70
10089;DHT22;51898;49.864;8.550;2023-07-02T15:44:53;25.90;35.60
10089;DHT22;51898;49.864;8.550;2023-07-02T15:47:55;26.70;34.80
10089;DHT22;51898;49.864;8.550;2023-07-02T15:50:58;26.90;34.50
10089;DHT22;51898;49.864;8.550;2023-07-02T15:54:00;27.10;34.40
10089;DHT22;51898;49.864;8.550;2023-07-02T15:57:02;27.10;34.40
10089;DHT22;51898;49.864;8.550;2023-07-02T16:00:04;26.50;35.70
10089;DHT22;51898;49.864;8.550;2023-07-02T16:03:06;26.50;35.50
10089;DHT22;51898;49.864;8.550;2023-07-02T16:06:09;27.10;35.10
10089;DHT22;51898;49.864;8.550;2023-07-02T16:09:11;27.50;33.70
10089;DHT22;51898;49.864;8.550;2023-07-02T16:12:13;27.60;33.60
10089;DHT22;51898;49.864;8.550;2023-07-02T16:15:15;27.90;33.80
10089;DHT22;51898;49.864;8.550;2023-07-02T16:18:16;28.20;32.70
10089;DHT22;51898;49.864;8.550;2023-07-02T16:21:18;27.80;33.00
10089;DHT22;51898;49.864;8.550;2023-07-02T16:24:27;27.40;33.40
10089;DHT22;51898;49.864;8.550;2023-07-02T16:27:28;27.10;34.30
10089;DHT22;51898;49.864;8.550;2023-07-02T16:30:32;27.30;34.20
10089;DHT22;51898;49.864;8.550;2023-07-02T16:33:35;27.40;33.60
10089;DHT22;51898;49.864;8.550;2023-07-02T16:36:38;27.70;33.50
10089;DHT22;51898;49.864;8.550;2023-07-02T16:39:40;27.40;34.00
10089;DHT22;51898;49.864;8.550;2023-07-02T16:42:41;26.70;34.40
10089;DHT22;51898;49.864;8.550;2023-07-02T16:45:51;26.00;35.50
10089;DHT22;51898;49.864;8.550;2023-07-02T16:48:53;25.70;36.20
10089;DHT22;51898;49.864;8.550;2023-07-02T16:51:56;26.40;35.50
10089;DHT22;51898;49.864;8.550;2023-07-02T16:54:58;27.40;34.20
10089;DHT22;51898;49.864;8.550;2023-07-02T16:58:00;27.90;34.00
10089;DHT22;51898;49.864;8.550;2023-07-02T17:01:08;28.40;32.50
10089;DHT22;51898;49.864;8.550;2023-07-02T17:04:10;28.40;32.20
10089;DHT22;51898;49.864;8.550;2023-07-02T17:07:15;28.10;32.80
10089;DHT22;51898;49.864;8.550;2023-07-02T17:10:16;28.20;32.80
10089;DHT22;51898;49.864;8.550;2023-07-02T17:13:18;28.20;32.90
10089;DHT22;51898;49.864;8.550;2023-07-02T17:16:20;28.10;32.90
10089;DHT22;51898;49.864;8.550;2023-07-02T17:19:33;28.00;33.10
10089;DHT22;51898;49.864;8.550;2023-07-02T17:22:35;27.80;32.80
10089;DHT22;51898;49.864;8.550;2023-07-02T17:25:37;27.60;33.50
10089;DHT22;51898;49.864;8.550;2023-07-02T17:28:39;27.60;33.60
10089;DHT22;51898;49.864;8.550;2023-07-02T17:31:40;27.30;33.70
10089;DHT22;51898;49.864;8.550;2023-07-02T17:34:44;27.60;33.40
10089;DHT22;51898;49.864;8.550;2023-07-02T17:37:46;27.70;33.50
10089;DHT22;51898;49.864;8.550;2023-07-02T17:40:48;27.80;33.00
10089;DHT22;51898;49.864;8.550;2023-07-02T17:43:49;27.90;32.80
10089;DHT22;51898;49.864;8.550;2023-07-02T17:47:00;27.30;33.60
10089;DHT22;51898;49.864;8.550;2023-07-02T17:50:03;26.70;34.20
10089;DHT22;51898;49.864;8.550;2023-07-02T17:53:05;26.10;35.10
10089;DHT22;51898;49.864;8.550;2023-07-02T17:56:06;26.30;35.20
10089;DHT22;51898;49.864;8.550;2023-07-02T17:59:08;26.70;34.90
10089;DHT22;51898;49.864;8.550;2023-07-02T18:02:11;27.30;34.30
10089;DHT22;51898;49.864;8.550;2023-07-02T18:05:13;27.50;33.70
10089;DHT22;51898;49.864;8.550;2023-07-02T18:08:15;27.30;34.00
10089;DHT22;51898;49.864;8.550;2023-07-02T18:11:17;27.10;34.50
10089;DHT22;51898;49.864;8.550;2023-07-02T18:14:22;26.70;34.00
10089;DHT22;51898;49.864;8.550;2023-07-02T18:17:26;26.20;35.00
10089;DHT22;51898;49.864;8.550;2023-07-02T18:20:28;25.80;35.80
10089;DHT22;51898;49.864;8.550;2023-07-02T18:23:30;25.20;36.80
10089;DHT22;51898;49.864;8.550;2023-07-02T18:26:34;25.10;37.10
10089;DHT22;51898;49.864;8.550;2023-07-02T18:29:37;25.20;37.10
10089;DHT22;51898;49.864;8.550;2023-07-02T18:32:39;25.30;36.90
10089;DHT22;51898;49.864;8.550;2023-07-02T18:35:41;25.40;37.00
10089;DHT22;51898;49.864;8.550;2023-07-02T18:38:44;25.30;37.20
10089;DHT22;51898;49.864;8.550;2023-07-02T18:41:47;25.20;37.20
10089;DHT22;51898;49.864;8.550;2023-07-02T18:44:49;24.90;37.80
10089;DHT22;51898;49.864;8.550;2023-07-02T18:47:51;24.40;38.40
10089;DHT22;51898;49.864;8.550;2023-07-02T18:50:53;24.10;38.60
10089;DHT22;51898;49.864;8.550;2023-07-02T18:53:55;23.80;39.30
10089;DHT22;51898;49.864;8.550;2023-07-02T18:56:57;23.50;39.80
10089;DHT22;51898;49.864;8.550;2023-07-02T18:59:59;23.30;40.40
10089;DHT22;51898;49.864;8.550;2023-07-02T19:03:01;23.10;40.80
10089;DHT22;51898;49.864;8.550;2023-07-02T19:06:08;22.80;41.30
10089;DHT22;51898;49.864;8.550;2023-07-02T19:09:09;22.60;41.80
10089;DHT22;51898;49.864;8.550;2023-07-02T19:12:14;22.40;42.30
10089;DHT22;51898;49.864;8.550;2023-07-02T19:15:16;22.20;42.60
10089;DHT22;51898;49.864;8.550;2023-07-02T19:18:18;22.10;42.90
10089;DHT22;51898;49.864;8.550;2023-07-02T19:21:20;21.90;43.40
10089;DHT22;51898;49.864;8.550;2023-07-02T19:24:24;21.80;43.60
10089;DHT22;51898;49.864;8.550;2023-07-02T19:27:26;21.70;43.70